sensor_id;sensor_type;location;lat;lon;timestamp;P1;durP1;ratioP1;P2;durP2;ratioP2
53309;SDS011;39197;53.200;5.792;2023-07-31T00:02:03;11.30;;;1.90;;
53309;SDS011;39197;53.200;5.792;2023-07-31T00:04:29;7.63;;;1.55;;
53309;SDS011;39197;53.200;5.792;2023-07-31T00:06:54;6.28;;;1.10;;
53309;SDS011;39197;53.200;5.792;2023-07-31T00:09:20;7.15;;;1.38;;
53309;SDS011;39197;53.200;5.792;2023-07-31T00:11:45;10.27;;;1.02;;
53309;SDS011;39197;53.200;5.792;2023-07-31T00:14:11;8.30;;;1.25;;
53309;SDS011;39197;53.200;5.792;2023-07-31T00:16:36;9.60;;;1.45;;
53309;SDS011;39197;53.200;5.792;2023-07-31T00:19:02;6.38;;;1.55;;
53309;SDS011;39197;53.200;5.792;2023-07-31T00:21:27;6.22;;;1.10;;
53309;SDS011;39197;53.200;5.792;2023-07-31T00:23:53;6.53;;;1.20;;
53309;SDS011;39197;53.200;5.792;2023-07-31T00:26:19;8.85;;;1.10;;
53309;SDS011;39197;53.200;5.792;2023-07-31T00:28:44;7.03;;;1.25;;
53309;SDS011;39197;53.200;5.792;2023-07-31T00:31:10;8.02;;;1.05;;
53309;SDS011;39197;53.200;5.792;2023-07-31T00:33:35;7.28;;;1.30;;
53309;SDS011;39197;53.200;5.792;2023-07-31T00:36:01;7.75;;;1.63;;
53309;SDS011;39197;53.200;5.792;2023-07-31T00:38:27;7.65;;;1.17;;
53309;SDS011;39197;53.200;5.792;2023-07-31T00:40:53;11.18;;;1.48;;
53309;SDS011;39197;53.200;5.792;2023-07-31T00:43:18;11.90;;;1.85;;
53309;SDS011;39197;53.200;5.792;2023-07-31T00:45:44;9.13;;;1.25;;
53309;SDS011;39197;53.200;5.792;2023-07-31T00:48:10;8.23;;;1.17;;
53309;SDS011;39197;53.200;5.792;2023-07-31T00:50:36;9.65;;;1.50;;
53309;SDS011;39197;53.200;5.792;2023-07-31T00:53:02;9.50;;;1.40;;
53309;SDS011;39197;53.200;5.792;2023-07-31T00:55:29;8.20;;;1.58;;
53309;SDS011;39197;53.200;5.792;2023-07-31T00:57:55;9.45;;;1.70;;
53309;SDS011;39197;53.200;5.792;2023-07-31T01:00:21;9.20;;;1.27;;
53309;SDS011;39197;53.200;5.792;2023-07-31T01:02:48;7.22;;;1.92;;
53309;SDS011;39197;53.200;5.792;2023-07-31T01:05:15;6.75;;;1.48;;
53309;SDS011;39197;53.200;5.792;2023-07-31T01:10:35;9.82;;;1.65;;
53309;SDS011;39197;53.200;5.792;2023-07-31T01:13:11;11.32;;;2.00;;
53309;SDS011;39197;53.200;5.792;2023-07-31T01:15:37;7.40;;;1.58;;
53309;SDS011;39197;53.200;5.792;2023-07-31T01:18:03;9.82;;;1.63;;
53309;SDS011;39197;53.200;5.792;2023-07-31T01:20:29;9.82;;;1.92;;
53309;SDS011;39197;53.200;5.792;2023-07-31T01:28:37;5.07;;;1.83;;
53309;SDS011;39197;53.200;5.792;2023-07-31T01:31:13;10.00;;;1.40;;
53309;SDS011;39197;53.200;5.792;2023-07-31T01:33:44;9.55;;;2.15;;
53309;SDS011;39197;53.200;5.792;2023-07-31T01:36:11;10.02;;;1.70;;
53309;SDS011;39197;53.200;5.792;2023-07-31T01:38:37;8.18;;;1.23;;
53309;SDS011;39197;53.200;5.792;2023-07-31T01:41:02;8.57;;;1.90;;
53309;SDS011;39197;53.200;5.792;2023-07-31T01:43:28;6.43;;;1.88;;
53309;SDS011;39197;53.200;5.792;2023-07-31T01:45:54;6.30;;;1.25;;
53309;SDS011;39197;53.200;5.792;2023-07-31T01:48:19;9.32;;;1.88;;
53309;SDS011;39197;53.200;5.792;2023-07-31T01:50:45;8.27;;;1.52;;
53309;SDS011;39197;53.200;5.792;2023-07-31T01:53:10;7.82;;;1.80;;
53309;SDS011;39197;53.200;5.792;2023-07-31T01:55:37;5.90;;;1.55;;
53309;SDS011;39197;53.200;5.792;2023-07-31T01:58:03;8.95;;;1.55;;
53309;SDS011;39197;53.200;5.792;2023-07-31T02:00:28;8.63;;;1.63;;
53309;SDS011;39197;53.200;5.792;2023-07-31T02:02:54;7.13;;;1.90;;
53309;SDS011;39197;53.200;5.792;2023-07-31T02:05:20;10.98;;;1.50;;
53309;SDS011;39197;53.200;5.792;2023-07-31T02:07:45;11.95;;;1.92;;
53309;SDS011;39197;53.200;5.792;2023-07-31T02:10:11;9.27;;;1.75;;
53309;SDS011;39197;53.200;5.792;2023-07-31T02:12:36;4.70;;;1.45;;
53309;SDS011;39197;53.200;5.792;2023-07-31T02:15:02;8.25;;;1.85;;
53309;SDS011;39197;53.200;5.792;2023-07-31T02:17:28;7.60;;;1.90;;
53309;SDS011;39197;53.200;5.792;2023-07-31T02:19:54;7.05;;;2.13;;
53309;SDS011;39197;53.200;5.792;2023-07-31T02:22:20;8.25;;;1.65;;
53309;SDS011;39197;53.200;5.792;2023-07-31T02:24:45;8.88;;;1.63;;
53309;SDS011;39197;53.200;5.792;2023-07-31T02:27:11;8.80;;;1.70;;
53309;SDS011;39197;53.200;5.792;2023-07-31T02:29:37;4.93;;;1.30;;
53309;SDS011;39197;53.200;5.792;2023-07-31T02:32:02;6.65;;;0.80;;
53309;SDS011;39197;53.200;5.792;2023-07-31T02:34:28;6.53;;;1.27;;
53309;SDS011;39197;53.200;5.792;2023-07-31T02:36:54;6.85;;;1.83;;
53309;SDS011;39197;53.200;5.792;2023-07-31T02:39:19;7.40;;;1.38;;
53309;SDS011;39197;53.200;5.792;2023-07-31T02:41:45;4.60;;;0.82;;
53309;SDS011;39197;53.200;5.792;2023-07-31T02:44:11;6.63;;;1.80;;
53309;SDS011;39197;53.200;5.792;2023-07-31T02:46:39;3.25;;;1.30;;
53309;SDS011;39197;53.200;5.792;2023-07-31T02:49:05;3.72;;;1.00;;
53309;SDS011;39197;53.200;5.792;2023-07-31T02:51:30;6.85;;;1.40;;
53309;SDS011;39197;53.200;5.792;2023-07-31T02:53:56;5.35;;;1.70;;
53309;SDS011;39197;53.200;5.792;2023-07-31T02:56:22;3.90;;;1.40;;
53309;SDS011;39197;53.200;5.792;2023-07-31T02:58:47;5.30;;;1.00;;
53309;SDS011;39197;53.200;5.792;2023-07-31T03:01:13;3.75;;;0.88;;
53309;SDS011;39197;53.200;5.792;2023-07-31T03:03:41;5.53;;;1.20;;
53309;SDS011;39197;53.200;5.792;2023-07-31T03:06:07;5.80;;;1.23;;
53309;SDS011;39197;53.200;5.792;2023-07-31T03:08:33;6.65;;;1.60;;
53309;SDS011;39197;53.200;5.792;2023-07-31T03:10:58;5.85;;;1.40;;
53309;SDS011;39197;53.200;5.792;2023-07-31T03:13:24;4.30;;;1.40;;
53309;SDS011;39197;53.200;5.792;2023-07-31T03:15:50;4.53;;;1.50;;
53309;SDS011;39197;53.200;5.792;2023-07-31T03:18:15;4.55;;;1.65;;
53309;SDS011;39197;53.200;5.792;2023-07-31T03:20:44;3.55;;;1.15;;
53309;SDS011;39197;53.200;5.792;2023-07-31T03:23:10;4.50;;;1.23;;
53309;SDS011;39197;53.200;5.792;2023-07-31T03:25:35;4.85;;;0.88;;
53309;SDS011;39197;53.200;5.792;2023-07-31T03:28:01;4.57;;;1.30;;
53309;SDS011;39197;53.200;5.792;2023-07-31T03:30:27;3.88;;;0.85;;
53309;SDS011;39197;53.200;5.792;2023-07-31T03:32:52;2.70;;;1.17;;
53309;SDS011;39197;53.200;5.792;2023-07-31T03:35:18;2.22;;;0.50;;
53309;SDS011;39197;53.200;5.792;2023-07-31T03:37:44;2.63;;;0.90;;
53309;SDS011;39197;53.200;5.792;2023-07-31T03:40:09;2.75;;;0.80;;
53309;SDS011;39197;53.200;5.792;2023-07-31T03:42:35;1.60;;;0.70;;
53309;SDS011;39197;53.200;5.792;2023-07-31T03:45:01;3.40;;;1.02;;
53309;SDS011;39197;53.200;5.792;2023-07-31T03:47:27;2.25;;;0.30;;
53309;SDS011;39197;53.200;5.792;2023-07-31T03:49:52;1.83;;;0.40;;
53309;SDS011;39197;53.200;5.792;2023-07-31T03:52:18;1.17;;;0.40;;
53309;SDS011;39197;53.200;5.792;2023-07-31T03:54:43;2.75;;;0.47;;
53309;SDS011;39197;53.200;5.792;2023-07-31T03:57:09;1.33;;;0.40;;
53309;SDS011;39197;53.200;5.792;2023-07-31T03:59:36;1.45;;;0.28;;
53309;SDS011;39197;53.200;5.792;2023-07-31T04:02:04;1.80;;;0.40;;
53309;SDS011;39197;53.200;5.792;2023-07-31T04:04:29;1.92;;;0.32;;
53309;SDS011;39197;53.200;5.792;2023-07-31T04:06:55;3.42;;;0.75;;
53309;SDS011;39197;53.200;5.792;2023-07-31T04:09:21;3.75;;;0.70;;
53309;SDS011;39197;53.200;5.792;2023-07-31T04:11:46;3.15;;;0.60;;
53309;SDS011;39197;53.200;5.792;2023-07-31T04:14:12;4.20;;;1.02;;
53309;SDS011;39197;53.200;5.792;2023-07-31T04:16:37;3.33;;;1.20;;
53309;SDS011;39197;53.200;5.792;2023-07-31T04:19:03;6.60;;;1.67;;
53309;SDS011;39197;53.200;5.792;2023-07-31T04:21:29;6.53;;;2.08;;
53309;SDS011;39197;53.200;5.792;2023-07-31T04:23:54;10.90;;;4.03;;
53309;SDS011;39197;53.200;5.792;2023-07-31T04:26:21;13.05;;;3.63;;
53309;SDS011;39197;53.200;5.792;2023-07-31T04:28:47;15.07;;;4.60;;
53309;SDS011;39197;53.200;5.792;2023-07-31T04:31:12;15.55;;;4.72;;
53309;SDS011;39197;53.200;5.792;2023-07-31T04:33:38;13.55;;;4.57;;
53309;SDS011;39197;53.200;5.792;2023-07-31T04:36:04;10.95;;;4.75;;
53309;SDS011;39197;53.200;5.792;2023-07-31T04:38:30;16.75;;;5.15;;
53309;SDS011;39197;53.200;5.792;2023-07-31T04:40:56;14.18;;;4.93;;
53309;SDS011;39197;53.200;5.792;2023-07-31T04:43:21;14.02;;;5.13;;
53309;SDS011;39197;53.200;5.792;2023-07-31T04:45:47;16.48;;;4.60;;
53309;SDS011;39197;53.200;5.792;2023-07-31T04:48:13;15.82;;;5.07;;
53309;SDS011;39197;53.200;5.792;2023-07-31T04:50:39;13.75;;;4.63;;
53309;SDS011;39197;53.200;5.792;2023-07-31T04:53:05;11.32;;;3.53;;
53309;SDS011;39197;53.200;5.792;2023-07-31T04:55:31;13.82;;;3.90;;
53309;SDS011;39197;53.200;5.792;2023-07-31T04:57:57;9.80;;;3.70;;
53309;SDS011;39197;53.200;5.792;2023-07-31T05:00:24;13.80;;;4.18;;
53309;SDS011;39197;53.200;5.792;2023-07-31T05:02:49;10.43;;;3.45;;
53309;SDS011;39197;53.200;5.792;2023-07-31T05:05:15;15.15;;;4.30;;
53309;SDS011;39197;53.200;5.792;2023-07-31T05:07:41;18.05;;;4.57;;
53309;SDS011;39197;53.200;5.792;2023-07-31T05:10:06;13.18;;;4.18;;
53309;SDS011;39197;53.200;5.792;2023-07-31T05:12:32;17.85;;;4.90;;
53309;SDS011;39197;53.200;5.792;2023-07-31T05:14:58;15.98;;;5.57;;
53309;SDS011;39197;53.200;5.792;2023-07-31T05:17:23;17.95;;;5.80;;
53309;SDS011;39197;53.200;5.792;2023-07-31T05:19:49;19.23;;;5.75;;
53309;SDS011;39197;53.200;5.792;2023-07-31T05:22:15;24.65;;;6.68;;
53309;SDS011;39197;53.200;5.792;2023-07-31T05:24:40;17.80;;;5.80;;
53309;SDS011;39197;53.200;5.792;2023-07-31T05:27:06;21.65;;;6.07;;
53309;SDS011;39197;53.200;5.792;2023-07-31T05:29:32;23.00;;;7.45;;
53309;SDS011;39197;53.200;5.792;2023-07-31T05:31:57;26.67;;;7.75;;
53309;SDS011;39197;53.200;5.792;2023-07-31T05:34:23;22.55;;;8.65;;
53309;SDS011;39197;53.200;5.792;2023-07-31T05:36:48;25.67;;;8.00;;
53309;SDS011;39197;53.200;5.792;2023-07-31T05:39:14;24.38;;;7.70;;
53309;SDS011;39197;53.200;5.792;2023-07-31T05:41:40;32.25;;;9.75;;
53309;SDS011;39197;53.200;5.792;2023-07-31T05:44:05;28.30;;;7.50;;
53309;SDS011;39197;53.200;5.792;2023-07-31T05:46:31;17.08;;;6.38;;
53309;SDS011;39197;53.200;5.792;2023-07-31T05:48:56;15.38;;;4.95;;
53309;SDS011;39197;53.200;5.792;2023-07-31T05:51:22;13.50;;;4.30;;
53309;SDS011;39197;53.200;5.792;2023-07-31T05:53:48;16.13;;;4.55;;
53309;SDS011;39197;53.200;5.792;2023-07-31T05:56:13;8.40;;;3.30;;
53309;SDS011;39197;53.200;5.792;2023-07-31T05:58:39;12.30;;;2.42;;
53309;SDS011;39197;53.200;5.792;2023-07-31T06:01:04;7.65;;;2.65;;
53309;SDS011;39197;53.200;5.792;2023-07-31T06:03:30;9.55;;;2.53;;
53309;SDS011;39197;53.200;5.792;2023-07-31T06:05:56;8.32;;;2.22;;
53309;SDS011;39197;53.200;5.792;2023-07-31T06:08:21;8.50;;;3.15;;
53309;SDS011;39197;53.200;5.792;2023-07-31T06:10:47;10.63;;;2.55;;
53309;SDS011;39197;53.200;5.792;2023-07-31T06:13:13;6.38;;;2.20;;
53309;SDS011;39197;53.200;5.792;2023-07-31T06:15:38;9.93;;;3.28;;
53309;SDS011;39197;53.200;5.792;2023-07-31T06:18:04;8.52;;;3.05;;
53309;SDS011;39197;53.200;5.792;2023-07-31T06:20:32;9.43;;;3.72;;
53309;SDS011;39197;53.200;5.792;2023-07-31T06:22:59;13.38;;;4.30;;
53309;SDS011;39197;53.200;5.792;2023-07-31T06:25:24;16.75;;;5.22;;
53309;SDS011;39197;53.200;5.792;2023-07-31T06:27:50;17.48;;;5.40;;
53309;SDS011;39197;53.200;5.792;2023-07-31T06:30:16;13.95;;;4.00;;
53309;SDS011;39197;53.200;5.792;2023-07-31T06:32:42;15.20;;;5.25;;
53309;SDS011;39197;53.200;5.792;2023-07-31T06:35:08;16.17;;;4.72;;
53309;SDS011;39197;53.200;5.792;2023-07-31T06:37:33;16.00;;;4.90;;
53309;SDS011;39197;53.200;5.792;2023-07-31T06:39:59;14.00;;;4.50;;
53309;SDS011;39197;53.200;5.792;2023-07-31T06:42:24;15.32;;;4.60;;
53309;SDS011;39197;53.200;5.792;2023-07-31T06:44:50;11.73;;;4.20;;
53309;SDS011;39197;53.200;5.792;2023-07-31T06:47:16;12.48;;;4.18;;
53309;SDS011;39197;53.200;5.792;2023-07-31T06:49:41;13.50;;;4.28;;
53309;SDS011;39197;53.200;5.792;2023-07-31T06:52:07;13.15;;;4.47;;
53309;SDS011;39197;53.200;5.792;2023-07-31T06:54:32;4.75;;;1.55;;
53309;SDS011;39197;53.200;5.792;2023-07-31T06:56:58;10.98;;;3.72;;
53309;SDS011;39197;53.200;5.792;2023-07-31T06:59:24;11.57;;;3.55;;
53309;SDS011;39197;53.200;5.792;2023-07-31T07:01:49;5.90;;;2.80;;
53309;SDS011;39197;53.200;5.792;2023-07-31T07:04:15;9.95;;;3.60;;
53309;SDS011;39197;53.200;5.792;2023-07-31T07:06:41;5.88;;;2.58;;
53309;SDS011;39197;53.200;5.792;2023-07-31T07:09:07;10.07;;;3.38;;
53309;SDS011;39197;53.200;5.792;2023-07-31T07:11:33;6.30;;;2.83;;
53309;SDS011;39197;53.200;5.792;2023-07-31T07:13:59;6.32;;;2.10;;
53309;SDS011;39197;53.200;5.792;2023-07-31T07:16:25;4.38;;;1.67;;
53309;SDS011;39197;53.200;5.792;2023-07-31T07:18:51;5.95;;;2.00;;
53309;SDS011;39197;53.200;5.792;2023-07-31T07:21:17;4.93;;;1.10;;
53309;SDS011;39197;53.200;5.792;2023-07-31T07:23:43;1.55;;;0.80;;
53309;SDS011;39197;53.200;5.792;2023-07-31T07:26:08;4.93;;;1.40;;
53309;SDS011;39197;53.200;5.792;2023-07-31T07:28:34;3.50;;;1.45;;
53309;SDS011;39197;53.200;5.792;2023-07-31T07:31:02;3.75;;;1.30;;
53309;SDS011;39197;53.200;5.792;2023-07-31T07:33:28;5.22;;;1.73;;
53309;SDS011;39197;53.200;5.792;2023-07-31T07:35:53;5.10;;;1.40;;
53309;SDS011;39197;53.200;5.792;2023-07-31T07:38:19;4.60;;;1.65;;
53309;SDS011;39197;53.200;5.792;2023-07-31T07:40:45;5.10;;;1.40;;
53309;SDS011;39197;53.200;5.792;2023-07-31T07:43:15;3.08;;;0.80;;
53309;SDS011;39197;53.200;5.792;2023-07-31T07:45:41;4.72;;;0.95;;
53309;SDS011;39197;53.200;5.792;2023-07-31T07:48:06;3.00;;;0.90;;
53309;SDS011;39197;53.200;5.792;2023-07-31T07:50:32;1.70;;;0.40;;
53309;SDS011;39197;53.200;5.792;2023-07-31T07:52:58;1.75;;;0.40;;
53309;SDS011;39197;53.200;5.792;2023-07-31T07:55:23;1.02;;;0.35;;
53309;SDS011;39197;53.200;5.792;2023-07-31T07:57:49;1.30;;;0.25;;
53309;SDS011;39197;53.200;5.792;2023-07-31T08:00:15;3.65;;;0.45;;
53309;SDS011;39197;53.200;5.792;2023-07-31T08:02:42;0.47;;;0.20;;
53309;SDS011;39197;53.200;5.792;2023-07-31T08:05:08;1.08;;;0.30;;
53309;SDS011;39197;53.200;5.792;2023-07-31T08:07:34;1.75;;;0.30;;
53309;SDS011;39197;53.200;5.792;2023-07-31T08:09:59;3.60;;;0.40;;
53309;SDS011;39197;53.200;5.792;2023-07-31T08:12:25;1.35;;;0.30;;
53309;SDS011;39197;53.200;5.792;2023-07-31T08:14:51;3.92;;;0.50;;
53309;SDS011;39197;53.200;5.792;2023-07-31T08:17:17;2.17;;;0.50;;
53309;SDS011;39197;53.200;5.792;2023-07-31T08:19:42;3.00;;;1.13;;
53309;SDS011;39197;53.200;5.792;2023-07-31T08:22:09;4.85;;;0.68;;
53309;SDS011;39197;53.200;5.792;2023-07-31T08:24:34;5.68;;;0.60;;
53309;SDS011;39197;53.200;5.792;2023-07-31T08:27:00;4.22;;;0.70;;
53309;SDS011;39197;53.200;5.792;2023-07-31T08:29:26;3.25;;;0.45;;
53309;SDS011;39197;53.200;5.792;2023-07-31T08:31:51;4.53;;;0.57;;
53309;SDS011;39197;53.200;5.792;2023-07-31T08:34:17;4.15;;;0.52;;
53309;SDS011;39197;53.200;5.792;2023-07-31T08:36:43;5.10;;;0.60;;
53309;SDS011;39197;53.200;5.792;2023-07-31T08:39:08;3.30;;;0.40;;
53309;SDS011;39197;53.200;5.792;2023-07-31T08:41:40;4.18;;;0.50;;
53309;SDS011;39197;53.200;5.792;2023-07-31T08:44:09;2.28;;;0.30;;
53309;SDS011;39197;53.200;5.792;2023-07-31T08:46:37;2.72;;;0.60;;
53309;SDS011;39197;53.200;5.792;2023-07-31T08:49:06;1.17;;;0.17;;
53309;SDS011;39197;53.200;5.792;2023-07-31T08:51:35;1.52;;;0.20;;
53309;SDS011;39197;53.200;5.792;2023-07-31T08:54:01;3.33;;;0.82;;
53309;SDS011;39197;53.200;5.792;2023-07-31T08:56:29;2.67;;;0.35;;
53309;SDS011;39197;53.200;5.792;2023-07-31T08:58:56;1.02;;;0.30;;
53309;SDS011;39197;53.200;5.792;2023-07-31T09:01:24;2.75;;;0.52;;
53309;SDS011;39197;53.200;5.792;2023-07-31T09:03:50;2.25;;;0.30;;
53309;SDS011;39197;53.200;5.792;2023-07-31T09:06:17;2.35;;;0.40;;
53309;SDS011;39197;53.200;5.792;2023-07-31T09:08:45;4.15;;;0.40;;
53309;SDS011;39197;53.200;5.792;2023-07-31T09:11:11;3.63;;;0.30;;
53309;SDS011;39197;53.200;5.792;2023-07-31T09:13:37;5.25;;;0.80;;
53309;SDS011;39197;53.200;5.792;2023-07-31T09:16:05;1.77;;;0.40;;
53309;SDS011;39197;53.200;5.792;2023-07-31T09:18:30;2.72;;;0.63;;
53309;SDS011;39197;53.200;5.792;2023-07-31T09:23:39;1.15;;;0.22;;
53309;SDS011;39197;53.200;5.792;2023-07-31T09:26:09;1.08;;;0.40;;
53309;SDS011;39197;53.200;5.792;2023-07-31T09:28:35;0.77;;;0.10;;
53309;SDS011;39197;53.200;5.792;2023-07-31T09:31:01;1.70;;;0.38;;
53309;SDS011;39197;53.200;5.792;2023-07-31T09:33:26;1.17;;;0.28;;
53309;SDS011;39197;53.200;5.792;2023-07-31T09:35:52;1.02;;;0.40;;
53309;SDS011;39197;53.200;5.792;2023-07-31T09:38:18;1.58;;;0.57;;
53309;SDS011;39197;53.200;5.792;2023-07-31T09:40:44;1.33;;;0.45;;
53309;SDS011;39197;53.200;5.792;2023-07-31T09:43:14;4.57;;;0.40;;
53309;SDS011;39197;53.200;5.792;2023-07-31T09:45:46;2.50;;;0.40;;
53309;SDS011;39197;53.200;5.792;2023-07-31T09:48:12;3.80;;;0.80;;
53309;SDS011;39197;53.200;5.792;2023-07-31T09:50:44;4.47;;;0.50;;
53309;SDS011;39197;53.200;5.792;2023-07-31T09:53:11;5.18;;;1.02;;
53309;SDS011;39197;53.200;5.792;2023-07-31T09:55:37;2.75;;;0.60;;
53309;SDS011;39197;53.200;5.792;2023-07-31T09:58:09;3.55;;;0.70;;
53309;SDS011;39197;53.200;5.792;2023-07-31T10:00:35;2.58;;;0.57;;
53309;SDS011;39197;53.200;5.792;2023-07-31T10:03:03;3.95;;;0.57;;
53309;SDS011;39197;53.200;5.792;2023-07-31T10:05:43;2.00;;;0.50;;
53309;SDS011;39197;53.200;5.792;2023-07-31T10:08:15;4.68;;;0.68;;
53309;SDS011;39197;53.200;5.792;2023-07-31T10:10:43;5.15;;;0.90;;
53309;SDS011;39197;53.200;5.792;2023-07-31T10:13:10;3.58;;;0.73;;
53309;SDS011;39197;53.200;5.792;2023-07-31T10:15:37;6.32;;;1.15;;
53309;SDS011;39197;53.200;5.792;2023-07-31T10:18:05;5.88;;;1.17;;
53309;SDS011;39197;53.200;5.792;2023-07-31T10:20:31;4.10;;;0.60;;
53309;SDS011;39197;53.200;5.792;2023-07-31T10:22:57;3.63;;;0.60;;
53309;SDS011;39197;53.200;5.792;2023-07-31T10:25:24;3.60;;;0.70;;
53309;SDS011;39197;53.200;5.792;2023-07-31T10:27:51;5.50;;;0.95;;
53309;SDS011;39197;53.200;5.792;2023-07-31T10:30:18;3.30;;;0.50;;
53309;SDS011;39197;53.200;5.792;2023-07-31T10:32:47;5.47;;;0.85;;
53309;SDS011;39197;53.200;5.792;2023-07-31T10:35:15;1.65;;;0.40;;
53309;SDS011;39197;53.200;5.792;2023-07-31T10:37:42;3.53;;;0.57;;
53309;SDS011;39197;53.200;5.792;2023-07-31T10:40:24;2.17;;;0.55;;
53309;SDS011;39197;53.200;5.792;2023-07-31T10:42:52;3.83;;;0.65;;
53309;SDS011;39197;53.200;5.792;2023-07-31T10:45:30;3.75;;;0.50;;
53309;SDS011;39197;53.200;5.792;2023-07-31T10:48:02;5.10;;;0.90;;
53309;SDS011;39197;53.200;5.792;2023-07-31T10:50:30;4.15;;;1.05;;
53309;SDS011;39197;53.200;5.792;2023-07-31T10:53:22;1.08;;;0.30;;
53309;SDS011;39197;53.200;5.792;2023-07-31T10:55:49;4.00;;;1.58;;
53309;SDS011;39197;53.200;5.792;2023-07-31T10:58:17;2.55;;;1.10;;
53309;SDS011;39197;53.200;5.792;2023-07-31T11:00:44;6.18;;;2.83;;
53309;SDS011;39197;53.200;5.792;2023-07-31T11:03:12;4.28;;;0.70;;
53309;SDS011;39197;53.200;5.792;2023-07-31T11:05:42;2.45;;;0.50;;
53309;SDS011;39197;53.200;5.792;2023-07-31T11:10:37;5.40;;;1.10;;
53309;SDS011;39197;53.200;5.792;2023-07-31T11:13:04;5.68;;;0.90;;
53309;SDS011;39197;53.200;5.792;2023-07-31T11:15:30;4.82;;;1.27;;
53309;SDS011;39197;53.200;5.792;2023-07-31T11:17:56;6.07;;;1.00;;
53309;SDS011;39197;53.200;5.792;2023-07-31T11:20:26;6.10;;;1.23;;
53309;SDS011;39197;53.200;5.792;2023-07-31T11:22:52;8.05;;;0.80;;
53309;SDS011;39197;53.200;5.792;2023-07-31T11:25:18;5.65;;;1.13;;
53309;SDS011;39197;53.200;5.792;2023-07-31T11:27:43;3.85;;;0.85;;
53309;SDS011;39197;53.200;5.792;2023-07-31T11:30:10;4.75;;;0.88;;
53309;SDS011;39197;53.200;5.792;2023-07-31T11:32:36;2.70;;;0.63;;
53309;SDS011;39197;53.200;5.792;2023-07-31T11:35:02;3.53;;;0.60;;
53309;SDS011;39197;53.200;5.792;2023-07-31T11:37:40;4.50;;;0.60;;
53309;SDS011;39197;53.200;5.792;2023-07-31T11:40:07;4.28;;;0.52;;
53309;SDS011;39197;53.200;5.792;2023-07-31T11:42:37;2.85;;;0.40;;
53309;SDS011;39197;53.200;5.792;2023-07-31T11:45:03;3.40;;;0.50;;
53309;SDS011;39197;53.200;5.792;2023-07-31T11:47:29;5.07;;;0.90;;
53309;SDS011;39197;53.200;5.792;2023-07-31T11:49:59;3.95;;;0.55;;
53309;SDS011;39197;53.200;5.792;2023-07-31T11:52:25;3.53;;;0.80;;
53309;SDS011;39197;53.200;5.792;2023-07-31T11:54:51;7.45;;;1.08;;
53309;SDS011;39197;53.200;5.792;2023-07-31T11:57:17;3.92;;;0.60;;
53309;SDS011;39197;53.200;5.792;2023-07-31T11:59:44;4.05;;;1.02;;
53309;SDS011;39197;53.200;5.792;2023-07-31T12:02:10;6.40;;;1.30;;
53309;SDS011;39197;53.200;5.792;2023-07-31T12:04:36;5.57;;;1.20;;
53309;SDS011;39197;53.200;5.792;2023-07-31T12:07:03;4.40;;;1.08;;
53309;SDS011;39197;53.200;5.792;2023-07-31T12:09:29;11.23;;;2.00;;
53309;SDS011;39197;53.200;5.792;2023-07-31T12:11:55;5.40;;;1.25;;
53309;SDS011;39197;53.200;5.792;2023-07-31T12:14:21;9.32;;;1.52;;
53309;SDS011;39197;53.200;5.792;2023-07-31T12:16:53;12.40;;;2.03;;
53309;SDS011;39197;53.200;5.792;2023-07-31T12:19:27;9.18;;;2.97;;
53309;SDS011;39197;53.200;5.792;2023-07-31T12:21:54;11.18;;;2.60;;
53309;SDS011;39197;53.200;5.792;2023-07-31T12:24:21;12.30;;;2.10;;
53309;SDS011;39197;53.200;5.792;2023-07-31T12:26:47;11.15;;;2.22;;
53309;SDS011;39197;53.200;5.792;2023-07-31T12:29:13;12.00;;;3.42;;
53309;SDS011;39197;53.200;5.792;2023-07-31T12:31:40;12.57;;;2.13;;
53309;SDS011;39197;53.200;5.792;2023-07-31T12:34:16;11.70;;;2.90;;
53309;SDS011;39197;53.200;5.792;2023-07-31T12:36:43;15.20;;;2.78;;
53309;SDS011;39197;53.200;5.792;2023-07-31T12:39:09;12.65;;;2.83;;
53309;SDS011;39197;53.200;5.792;2023-07-31T12:41:35;13.55;;;2.58;;
53309;SDS011;39197;53.200;5.792;2023-07-31T12:44:01;10.40;;;2.03;;
53309;SDS011;39197;53.200;5.792;2023-07-31T12:46:28;10.82;;;2.42;;
53309;SDS011;39197;53.200;5.792;2023-07-31T12:48:53;10.55;;;2.25;;
53309;SDS011;39197;53.200;5.792;2023-07-31T12:51:19;9.10;;;1.55;;
53309;SDS011;39197;53.200;5.792;2023-07-31T12:53:46;12.20;;;2.60;;
53309;SDS011;39197;53.200;5.792;2023-07-31T12:56:11;11.65;;;1.67;;
53309;SDS011;39197;53.200;5.792;2023-07-31T12:58:37;7.95;;;1.98;;
53309;SDS011;39197;53.200;5.792;2023-07-31T13:01:03;12.63;;;1.90;;
53309;SDS011;39197;53.200;5.792;2023-07-31T13:03:28;9.27;;;2.28;;
53309;SDS011;39197;53.200;5.792;2023-07-31T13:05:54;6.18;;;1.00;;
53309;SDS011;39197;53.200;5.792;2023-07-31T13:08:20;9.25;;;1.90;;
53309;SDS011;39197;53.200;5.792;2023-07-31T13:10:46;9.45;;;2.83;;
53309;SDS011;39197;53.200;5.792;2023-07-31T13:13:11;7.97;;;1.73;;
53309;SDS011;39197;53.200;5.792;2023-07-31T13:15:37;7.15;;;1.52;;
53309;SDS011;39197;53.200;5.792;2023-07-31T13:18:03;6.35;;;1.17;;
53309;SDS011;39197;53.200;5.792;2023-07-31T13:20:29;7.88;;;2.33;;
53309;SDS011;39197;53.200;5.792;2023-07-31T13:22:54;7.45;;;1.70;;
53309;SDS011;39197;53.200;5.792;2023-07-31T13:25:20;9.15;;;2.08;;
53309;SDS011;39197;53.200;5.792;2023-07-31T13:27:46;9.30;;;2.03;;
53309;SDS011;39197;53.200;5.792;2023-07-31T13:30:11;7.10;;;1.27;;
53309;SDS011;39197;53.200;5.792;2023-07-31T13:32:37;8.18;;;1.73;;
53309;SDS011;39197;53.200;5.792;2023-07-31T13:35:07;4.07;;;0.82;;
53309;SDS011;39197;53.200;5.792;2023-07-31T13:37:33;5.13;;;1.30;;
53309;SDS011;39197;53.200;5.792;2023-07-31T13:40:00;6.07;;;1.67;;
53309;SDS011;39197;53.200;5.792;2023-07-31T13:42:26;7.68;;;2.50;;
53309;SDS011;39197;53.200;5.792;2023-07-31T13:44:53;7.40;;;2.28;;
53309;SDS011;39197;53.200;5.792;2023-07-31T13:47:21;8.00;;;2.63;;
53309;SDS011;39197;53.200;5.792;2023-07-31T13:49:46;4.95;;;1.90;;
53309;SDS011;39197;53.200;5.792;2023-07-31T13:52:12;7.72;;;2.63;;
53309;SDS011;39197;53.200;5.792;2023-07-31T13:54:38;8.00;;;1.63;;
53309;SDS011;39197;53.200;5.792;2023-07-31T13:57:03;12.13;;;3.25;;
53309;SDS011;39197;53.200;5.792;2023-07-31T13:59:29;11.23;;;3.42;;
53309;SDS011;39197;53.200;5.792;2023-07-31T14:01:55;11.40;;;2.83;;
53309;SDS011;39197;53.200;5.792;2023-07-31T14:04:23;10.15;;;3.28;;
53309;SDS011;39197;53.200;5.792;2023-07-31T14:06:48;12.85;;;2.95;;
53309;SDS011;39197;53.200;5.792;2023-07-31T14:09:15;8.60;;;2.65;;
53309;SDS011;39197;53.200;5.792;2023-07-31T14:11:42;10.10;;;3.33;;
53309;SDS011;39197;53.200;5.792;2023-07-31T14:14:08;13.45;;;2.95;;
53309;SDS011;39197;53.200;5.792;2023-07-31T14:16:34;8.73;;;2.60;;
53309;SDS011;39197;53.200;5.792;2023-07-31T14:19:00;11.07;;;3.00;;
53309;SDS011;39197;53.200;5.792;2023-07-31T14:21:26;6.50;;;2.13;;
53309;SDS011;39197;53.200;5.792;2023-07-31T14:23:52;10.43;;;3.20;;
53309;SDS011;39197;53.200;5.792;2023-07-31T14:26:18;7.38;;;2.22;;
53309;SDS011;39197;53.200;5.792;2023-07-31T14:28:43;9.70;;;3.15;;
53309;SDS011;39197;53.200;5.792;2023-07-31T14:31:09;11.38;;;2.33;;
53309;SDS011;39197;53.200;5.792;2023-07-31T14:33:35;20.02;;;3.60;;
53309;SDS011;39197;53.200;5.792;2023-07-31T14:36:00;9.57;;;2.65;;
53309;SDS011;39197;53.200;5.792;2023-07-31T14:38:26;11.27;;;2.58;;
53309;SDS011;39197;53.200;5.792;2023-07-31T14:40:52;17.48;;;2.85;;
53309;SDS011;39197;53.200;5.792;2023-07-31T14:43:17;9.63;;;2.53;;
53309;SDS011;39197;53.200;5.792;2023-07-31T14:45:43;12.38;;;2.80;;
53309;SDS011;39197;53.200;5.792;2023-07-31T14:48:11;9.95;;;1.70;;
53309;SDS011;39197;53.200;5.792;2023-07-31T14:50:37;7.78;;;1.38;;
53309;SDS011;39197;53.200;5.792;2023-07-31T14:53:02;9.88;;;1.95;;